• Join FlightAware (Why Join?)
  • Login
  • US Flag 
07:49PM EDT


 

Airport Tracker/Info


-or-


 

Live Flight TrackerFlight Track Log ✈ CSC8973 ✈ 06-Jan-2014 ✈ ZUCK / CKG - ZSPD / PVG

Flight Track Log - Related Links

Times and Time Zones

All times are in EST time to prevent confusion due to time zone crossing. See the CSC8973 flight status page for this flight to view local times or setup timezone preferences in your user account.

Time Position Orientation Groundspeed Altitude Reporting Facility
EST Latitude Longitude Course Direction KTS MPH feet Rate Location/Type
01:45AM 29.8570 107.5583 80° East  Level Estimated
01:46AM 29.8738 107.6731 80° East  Level Estimated
01:47AM 29.8904 107.7880 80° East  Level Estimated
01:48AM 29.9070 107.9029 81° East  Level Estimated
01:49AM 29.9234 108.0178 81° East  Level Estimated
01:50AM 29.9398 108.1328 81° East  Level Estimated
01:51AM 29.9561 108.2478 81° East  Level Estimated
01:52AM 29.9722 108.3629 81° East  Level Estimated
01:53AM 29.9883 108.4780 81° East  Level Estimated
01:54AM 30.0042 108.5931 81° East  Level Estimated
01:55AM 30.0201 108.7083 81° East  Level Estimated
01:56AM 30.0359 108.8235 81° East  Level Estimated
01:57AM 30.0515 108.9387 81° East  Level Estimated
01:58AM 30.0671 109.0540 81° East  Level Estimated
01:59AM 30.0825 109.1693 81° East  Level Estimated
02:00AM 30.0979 109.2847 81° East  Level Estimated
02:01AM 30.1173 109.4317 81° East  Level Estimated
02:02AM 30.1366 109.5789 81° East  Level Estimated
02:03AM 30.1557 109.7261 81° East  Level Estimated
02:04AM 30.1746 109.8733 82° East  Level Estimated
02:05AM 30.1934 110.0206 82° East  Level Estimated
02:06AM 30.2120 110.1680 82° East  Level Estimated
02:07AM 30.2304 110.3154 82° East  Level Estimated
02:08AM 30.2487 110.4628 82° East  Level Estimated
02:09AM 30.2668 110.6103 82° East  Level Estimated
02:10AM 30.2847 110.7579 82° East  Level Estimated
02:11AM 30.3025 110.9055 82° East  Level Estimated
02:12AM 30.3201 111.0532 82° East  Level Estimated
02:13AM 30.3376 111.2010 82° East  Level Estimated
02:14AM 30.3549 111.3487 82° East  Level Estimated
02:15AM 30.3720 111.4966 82° East  Level Estimated
02:16AM 30.3889 111.6445 82° East  Level Estimated
02:17AM 30.4057 111.7924 82° East  Level Estimated
02:18AM 30.4223 111.9404 83° East  Level Estimated
02:19AM 30.4387 112.0884 83° East  Level Estimated
02:20AM 30.4550 112.2365 83° East  Level Estimated
02:21AM 30.4711 112.3847 83° East  Level Estimated
02:22AM 30.4871 112.5329 83° East  Level Estimated
02:23AM 30.5029 112.6811 83° East  Level Estimated
02:24AM 30.5185 112.8294 83° East  Level Estimated
02:25AM 30.5339 112.9777 83° East  Level Estimated
02:26AM 30.5492 113.1261 83° East  Level Estimated
02:27AM 30.5643 113.2745 83° East  Level Estimated
02:28AM 30.5792 113.4230 83° East  Level Estimated
02:29AM 30.5940 113.5715 83° East  Level Estimated
02:30AM 30.6086 113.7200 83° East  Level Estimated
02:31AM 30.6230 113.8687 84° East  Level Estimated
02:32AM 30.6373 114.0173 84° East  Level Estimated
02:33AM 30.6514 114.1660 84° East  Level Estimated
02:34AM 30.6653 114.3147 84° East  Level Estimated
02:35AM 30.6791 114.4635 84° East  Level Estimated
02:36AM 30.6926 114.6123 84° East  Level Estimated
02:37AM 30.7060 114.7612 84° East  Level Estimated
02:38AM 30.7193 114.9101 84° East  Level Estimated
02:39AM 30.7323 115.0590 84° East  Level Estimated
02:40AM 30.7453 115.2080 84° East  Level Estimated
02:41AM 30.7580 115.3570 84° East  Level Estimated
02:42AM 30.7705 115.5061 84° East  Level Estimated
02:43AM 30.7829 115.6552 84° East  Level Estimated
02:44AM 30.7952 115.8043 85° East  Level Estimated
02:45AM 30.8072 115.9535 85° East  Level Estimated
02:46AM 30.8191 116.1027 85° East  Level Estimated
02:47AM 30.8308 116.2520 85° East  Level Estimated
02:48AM 30.8423 116.4013 85° East  Level Estimated
02:49AM 30.8537 116.5506 85° East  Level Estimated
02:50AM 30.8649 116.7000 85° East  Level Estimated
02:51AM 30.8759 116.8493 85° East  Level Estimated
02:52AM 30.8868 116.9988 85° East  Level Estimated
02:53AM 30.8975 117.1482 85° East  Level Estimated
02:54AM 30.9080 117.2977 85° East  Level Estimated
02:55AM 30.9183 117.4473 85° East  Level Estimated
02:56AM 30.9285 117.5968 85° East  Level Estimated
02:57AM 30.9385 117.7464 86° East  Level Estimated
02:58AM 30.9483 117.8960 86° East  Level Estimated
02:59AM 30.9579 118.0457 86° East  Level Estimated
03:00AM 30.9674 118.1954 86° East  Level Estimated
03:01AM 30.9767 118.3451 86° East  Level Estimated
03:02AM 30.9858 118.4948 86° East  Level Estimated
03:03AM 30.9948 118.6446 86° East  Level Estimated
03:04AM 31.0036 118.7944 86° East  Level Estimated
03:05AM 31.0122 118.9442 86° East  Level Estimated
03:06AM 31.0207 119.0940 86° East  Level Estimated
03:07AM 31.0289 119.2439 86° East  Level Estimated
03:08AM 31.0370 119.3938 86° East  Level Estimated
03:09AM 31.0449 119.5437 86° East  Level Estimated
03:10AM 31.0527 119.6937 87° East  Level Estimated
03:11AM 31.0602 119.8437 87° East  Level Estimated
03:12AM 31.0676 119.9937 87° East  Level Estimated
03:13AM 31.0749 120.1437 87° East  Level Estimated
03:14AM 31.0819 120.2937 87° East  Level Estimated
03:15AM 31.0888 120.4438 87° East  Level Estimated
03:16AM 31.0955 120.5939 87° East  Level Estimated
03:17AM 31.1021 120.7440 87° East  Level Estimated
03:18AM 31.1084 120.8941 87° East  Level Estimated
03:19AM 31.1146 121.0443 87° East  Level Estimated
03:20AM 31.1206 121.1945 87° East  Level Estimated
03:21AM 31.1264 121.3447 87° East  Level Estimated
03:22AM 31.1321 121.4949 87° East  Level Estimated
03:23AM 31.1376 121.6451 88° East  Level Estimated
03:24AM 31.1428 121.7924 88° East  Level Estimated
03:25AM 31.1428 121.7924 221° Southwest  Level Estimated
03:26AM 31.1428 121.7924 221° Southwest  Level Estimated
03:27AM 31.1428 121.7924 221° Southwest  Level Estimated